Time;durP1;ratioP1;P1;durP2;ratioP2;P2;SDS_P1;SDS_P2;PMS_P1;PMS_P2;Temp;Humidity;BMP_temperature;BMP_pressure;BME280_temperature;BME280_humidity;BME280_pressure;Samples;Min_cycle;Max_cycle;Signal;HPM_P1;HPM_P2
2022/10/15 00:01:38;;;;;;;5.25;3.53;;;15.60;99.90;;;;;;5034123;28;20554;-84
2022/10/15 00:04:04;;;;;;;5.13;3.47;;;15.50;99.90;;;;;;5064695;28;20233;-84
2022/10/15 00:06:30;;;;;;;7.15;4.03;;;15.50;99.90;;;;;;5047756;28;20519;-83
2022/10/15 00:08:55;;;;;;;5.82;3.95;;;15.50;99.90;;;;;;5043552;28;20402;-83
2022/10/15 00:11:24;;;;;;;5.67;3.63;;;15.50;99.90;;;;;;5065430;28;20119;-83
2022/10/15 00:13:57;;;;;;;5.95;3.78;;;15.50;99.90;;;;;;5060003;28;20090;-84
2022/10/15 00:16:24;;;;;;;6.03;3.80;;;15.50;99.90;;;;;;5072566;28;20024;-84
2022/10/15 00:18:51;;;;;;;6.10;3.67;;;15.50;99.90;;;;;;5040677;28;20028;-84
2022/10/15 00:21:19;;;;;;;7.30;4.07;;;15.50;99.90;;;;;;5059479;28;20774;-83
2022/10/15 00:23:45;;;;;;;6.63;4.20;;;15.60;99.90;;;;;;5066925;28;20099;-83
2022/10/15 00:26:14;;;;;;;6.18;4.00;;;15.60;99.90;;;;;;5070633;28;20229;-84
2022/10/15 00:28:40;;;;;;;7.03;4.07;;;15.60;99.90;;;;;;5061614;28;20323;-84
2022/10/15 00:31:13;;;;;;;6.70;4.17;;;15.60;99.90;;;;;;5053308;28;20036;-84
2022/10/15 00:33:39;;;;;;;7.10;4.15;;;15.60;99.90;;;;;;5048635;28;20485;-84
2022/10/15 00:36:17;;;;;;;7.28;3.88;;;15.60;99.90;;;;;;5057656;28;20159;-84
2022/10/15 00:38:43;;;;;;;7.68;4.32;;;15.70;99.90;;;;;;5069129;28;20029;-84
2022/10/15 00:41:19;;;;;;;8.57;4.60;;;15.70;99.90;;;;;;5046284;28;20047;-84
2022/10/15 00:43:48;;;;;;;8.10;4.72;;;15.70;99.90;;;;;;5046594;28;20060;-84
2022/10/15 00:46:34;;;;;;;9.18;5.15;;;15.80;99.90;;;;;;5051876;28;20566;-84
2022/10/15 00:49:17;;;;;;;8.32;4.80;;;15.80;99.90;;;;;;5063923;28;20546;-84
2022/10/15 00:51:48;;;;;;;8.70;4.82;;;15.80;99.90;;;;;;5048287;28;20416;-83
2022/10/15 00:54:14;;;;;;;9.13;5.03;;;15.80;99.90;;;;;;5059512;28;20245;-84
2022/10/15 00:56:43;;;;;;;9.23;4.95;;;15.80;99.90;;;;;;5048241;28;20063;-84
2022/10/15 00:59:11;;;;;;;8.48;5.15;;;15.90;99.90;;;;;;5056627;28;20036;-83
2022/10/15 01:01:37;;;;;;;8.32;4.88;;;15.90;99.90;;;;;;5060078;28;20008;-84
2022/10/15 01:04:05;;;;;;;9.38;5.55;;;15.90;99.90;;;;;;5030934;28;20577;-83
2022/10/15 01:06:31;;;;;;;9.87;5.73;;;15.90;99.90;;;;;;5062347;28;20104;-83
2022/10/15 01:08:56;;;;;;;9.70;5.43;;;15.90;99.90;;;;;;5041401;28;20455;-84
2022/10/15 01:11:51;;;;;;;10.30;5.25;;;15.90;99.90;;;;;;5058395;28;20151;-84
2022/10/15 01:14:38;;;;;;;9.15;5.25;;;16.00;99.90;;;;;;5067268;28;20613;-84
2022/10/15 01:17:20;;;;;;;8.03;4.60;;;16.00;99.90;;;;;;5057630;28;20252;-83
2022/10/15 01:20:10;;;;;;;10.05;5.55;;;16.00;99.90;;;;;;5059702;28;20479;-84
2022/10/15 01:22:54;;;;;;;8.82;4.97;;;16.00;99.90;;;;;;5050252;28;20025;-84
2022/10/15 01:25:36;;;;;;;10.45;5.85;;;16.00;99.90;;;;;;5068967;28;20404;-84
2022/10/15 01:28:39;;;;;;;10.23;5.45;;;16.00;99.90;;;;;;5040262;28;20032;-84
2022/10/15 01:31:13;;;;;;;10.40;5.73;;;16.00;99.90;;;;;;5034887;28;20448;-84
2022/10/15 01:33:44;;;;;;;10.25;5.90;;;16.00;99.90;;;;;;5071625;28;20040;-84
2022/10/15 01:36:47;;;;;;;11.25;5.57;;;16.00;99.90;;;;;;5048622;28;20785;-84
2022/10/15 01:39:32;;;;;;;9.75;5.82;;;16.00;99.90;;;;;;4993292;28;20283;-84
2022/10/15 01:42:09;;;;;;;10.13;5.53;;;16.10;99.90;;;;;;5065623;28;20538;-84
2022/10/15 01:44:45;;;;;;;9.73;5.63;;;16.00;99.90;;;;;;5043939;28;20032;-83
2022/10/15 01:47:20;;;;;;;10.57;5.78;;;16.00;99.90;;;;;;5062043;28;20202;-84
2022/10/15 01:49:48;;;;;;;9.25;5.60;;;16.00;99.90;;;;;;5048107;28;20041;-84
2022/10/15 01:52:18;;;;;;;10.75;6.10;;;16.00;99.90;;;;;;5049032;28;20265;-84
2022/10/15 01:54:46;;;;;;;10.18;6.10;;;16.00;99.90;;;;;;5050578;28;20085;-84
2022/10/15 01:57:15;;;;;;;11.30;6.83;;;16.00;99.90;;;;;;5059932;28;20769;-83
2022/10/15 01:59:41;;;;;;;10.73;6.22;;;16.00;99.90;;;;;;5056946;28;20044;-84
2022/10/15 02:02:07;;;;;;;10.80;6.03;;;16.00;99.90;;;;;;5043450;28;20087;-83
2022/10/15 02:04:33;;;;;;;10.33;6.13;;;16.00;99.90;;;;;;5054607;28;20044;-83
2022/10/15 02:07:01;;;;;;;11.15;6.53;;;16.00;99.90;;;;;;5058512;28;20035;-83
2022/10/15 02:09:40;;;;;;;10.57;6.55;;;16.00;99.90;;;;;;5042788;28;20046;-84
2022/10/15 02:12:24;;;;;;;11.00;6.00;;;16.00;99.90;;;;;;5045348;28;20032;-84
2022/10/15 02:15:02;;;;;;;9.48;5.82;;;16.00;99.90;;;;;;5061896;28;20115;-84
2022/10/15 02:17:40;;;;;;;11.23;5.85;;;16.10;99.90;;;;;;5049369;28;20016;-83
2022/10/15 02:20:18;;;;;;;10.70;5.88;;;16.00;99.90;;;;;;5044476;28;20417;-83
2022/10/15 02:22:49;;;;;;;10.27;5.85;;;16.00;99.90;;;;;;5071467;28;20028;-84
2022/10/15 02:25:20;;;;;;;10.60;5.87;;;16.00;99.90;;;;;;5068300;28;20051;-83
2022/10/15 02:27:48;;;;;;;11.63;6.57;;;16.00;99.90;;;;;;5048206;28;20027;-84
2022/10/15 02:30:15;;;;;;;10.60;5.82;;;16.00;99.90;;;;;;5055520;28;20575;-84
2022/10/15 02:32:43;;;;;;;11.35;6.43;;;16.00;99.90;;;;;;5060043;28;20326;-84
2022/10/15 02:35:10;;;;;;;10.30;6.25;;;15.90;99.90;;;;;;5055099;28;20302;-84
2022/10/15 02:37:41;;;;;;;11.20;6.37;;;15.90;99.90;;;;;;5046960;28;20086;-83
2022/10/15 02:40:07;;;;;;;10.77;6.47;;;15.90;99.90;;;;;;5052162;28;20202;-83
2022/10/15 02:42:32;;;;;;;11.85;6.63;;;15.90;99.90;;;;;;5058277;28;20032;-84
2022/10/15 02:44:58;;;;;;;11.70;6.27;;;15.80;99.90;;;;;;5056829;28;20711;-84
2022/10/15 02:47:24;;;;;;;10.85;6.22;;;15.80;99.90;;;;;;5059657;28;20378;-84
2022/10/15 02:49:49;;;;;;;10.30;6.20;;;15.80;99.90;;;;;;5041318;28;20040;-84
2022/10/15 02:52:15;;;;;;;10.45;5.95;;;15.80;99.90;;;;;;5038313;28;20501;-84
2022/10/15 02:54:40;;;;;;;12.07;6.60;;;15.80;99.90;;;;;;5050594;28;20033;-83
2022/10/15 02:57:06;;;;;;;11.20;6.60;;;15.70;99.90;;;;;;5036956;28;20310;-83
2022/10/15 02:59:32;;;;;;;10.90;6.20;;;15.70;99.90;;;;;;5073266;27;20347;-84
2022/10/15 03:01:57;;;;;;;11.37;5.90;;;15.70;99.90;;;;;;5039125;28;20021;-84
2022/10/15 03:04:23;;;;;;;11.63;6.63;;;15.70;99.90;;;;;;5050704;28;20015;-84
2022/10/15 03:06:49;;;;;;;11.67;6.67;;;15.70;99.90;;;;;;5061469;28;20110;-83
2022/10/15 03:09:15;;;;;;;10.80;6.22;;;15.70;99.90;;;;;;5042170;28;20032;-84
2022/10/15 03:11:40;;;;;;;11.63;6.50;;;15.70;99.90;;;;;;5047781;28;20028;-83
2022/10/15 03:14:06;;;;;;;12.27;6.47;;;15.60;99.90;;;;;;5028704;28;20029;-84
2022/10/15 03:16:32;;;;;;;11.67;6.30;;;15.60;99.90;;;;;;5066819;28;20535;-84
2022/10/15 03:18:57;;;;;;;11.48;6.15;;;15.60;99.90;;;;;;5049699;28;20023;-84
2022/10/15 03:21:23;;;;;;;11.80;6.00;;;15.60;99.90;;;;;;5047142;28;20341;-84
2022/10/15 03:23:49;;;;;;;10.90;6.10;;;15.60;99.90;;;;;;5055593;28;20048;-84
2022/10/15 03:26:14;;;;;;;12.37;6.57;;;15.50;99.90;;;;;;5053319;28;20528;-84
2022/10/15 03:28:40;;;;;;;11.30;6.00;;;15.50;99.90;;;;;;5060650;28;20381;-83
2022/10/15 03:31:05;;;;;;;11.57;6.20;;;15.50;99.90;;;;;;5059050;28;20759;-84
2022/10/15 03:33:31;;;;;;;10.50;5.73;;;15.50;99.90;;;;;;5046778;28;20032;-84
2022/10/15 03:35:57;;;;;;;10.75;5.93;;;15.50;99.90;;;;;;5063352;28;20078;-84
2022/10/15 03:38:22;;;;;;;10.20;5.53;;;15.50;99.90;;;;;;5062806;28;20029;-84
2022/10/15 03:40:48;;;;;;;10.80;5.63;;;15.50;99.90;;;;;;5046633;28;20121;-84
2022/10/15 03:43:14;;;;;;;10.27;5.30;;;15.40;99.90;;;;;;5043142;28;20326;-84
2022/10/15 03:45:39;;;;;;;8.57;4.60;;;15.40;99.90;;;;;;5035862;28;20370;-84
2022/10/15 03:48:05;;;;;;;10.53;5.40;;;15.40;99.90;;;;;;5067240;28;20032;-84
2022/10/15 03:50:31;;;;;;;10.05;5.43;;;15.40;99.90;;;;;;5036845;28;20513;-84
2022/10/15 03:52:57;;;;;;;12.53;5.40;;;15.30;99.90;;;;;;5043382;28;21865;-84
2022/10/15 03:55:22;;;;;;;10.68;5.45;;;15.40;99.90;;;;;;5053944;28;20025;-84
2022/10/15 03:57:48;;;;;;;10.77;5.63;;;15.30;99.90;;;;;;5061008;28;20111;-83
2022/10/15 04:00:14;;;;;;;10.27;5.18;;;15.30;99.90;;;;;;5056887;28;20334;-84
2022/10/15 04:02:40;;;;;;;9.75;5.50;;;15.30;99.90;;;;;;5042557;28;20016;-83
2022/10/15 04:05:06;;;;;;;10.27;5.47;;;15.30;99.90;;;;;;5066690;28;20028;-83
2022/10/15 04:07:31;;;;;;;10.50;5.50;;;15.20;99.90;;;;;;5050422;28;20028;-84
2022/10/15 04:09:57;;;;;;;9.53;5.17;;;15.20;99.90;;;;;;5040638;28;20027;-84
2022/10/15 04:12:23;;;;;;;9.67;5.03;;;15.20;99.90;;;;;;5042839;28;20024;-83
2022/10/15 04:14:48;;;;;;;12.15;5.05;;;15.20;99.90;;;;;;5045311;28;20677;-83
2022/10/15 04:17:15;;;;;;;11.23;5.40;;;15.10;99.90;;;;;;5061693;28;20177;-83
2022/10/15 04:19:40;;;;;;;9.02;5.30;;;15.10;99.90;;;;;;5063257;28;20016;-83
2022/10/15 04:22:06;;;;;;;8.98;4.63;;;15.00;99.90;;;;;;5040730;28;20294;-84
2022/10/15 04:24:32;;;;;;;8.87;5.00;;;15.00;99.90;;;;;;5063292;28;20048;-83
2022/10/15 04:26:57;;;;;;;7.60;4.10;;;14.90;99.90;;;;;;5047993;28;20019;-83
2022/10/15 04:29:23;;;;;;;6.70;3.80;;;14.80;99.90;;;;;;5058408;28;20361;-83
2022/10/15 04:31:48;;;;;;;7.47;4.20;;;14.90;99.90;;;;;;5039313;28;20362;-83
2022/10/15 04:34:14;;;;;;;7.60;4.35;;;14.80;99.90;;;;;;5046105;28;20367;-83
2022/10/15 04:36:40;;;;;;;7.03;4.00;;;14.80;99.90;;;;;;5054827;28;20025;-83
2022/10/15 04:39:05;;;;;;;8.77;4.40;;;14.80;99.90;;;;;;5058620;28;20178;-83
2022/10/15 04:41:31;;;;;;;9.23;4.47;;;14.80;99.90;;;;;;5063473;28;20035;-83
2022/10/15 04:43:57;;;;;;;9.57;4.83;;;14.80;99.90;;;;;;5059904;28;20154;-83
2022/10/15 04:46:24;;;;;;;10.07;4.63;;;14.80;99.90;;;;;;5051205;28;20093;-83
2022/10/15 04:48:49;;;;;;;9.88;5.28;;;14.80;99.90;;;;;;5038247;28;20043;-83
2022/10/15 04:51:18;;;;;;;9.10;4.82;;;14.90;99.90;;;;;;5063203;28;20701;-83
2022/10/15 04:53:44;;;;;;;8.70;4.80;;;14.90;99.90;;;;;;5044742;28;20052;-84
2022/10/15 04:56:14;;;;;;;9.07;5.07;;;14.90;99.90;;;;;;5058384;28;20224;-83
2022/10/15 04:58:41;;;;;;;10.13;5.10;;;15.00;99.90;;;;;;5040751;28;20027;-84
2022/10/15 05:01:12;;;;;;;9.40;5.03;;;15.10;99.90;;;;;;5050019;28;20052;-83
2022/10/15 05:03:43;;;;;;;9.90;5.20;;;15.10;99.90;;;;;;5050680;28;20324;-83
2022/10/15 05:06:20;;;;;;;11.27;4.97;;;15.20;99.90;;;;;;5056146;28;20135;-84
2022/10/15 05:08:46;;;;;;;10.30;5.22;;;15.20;99.90;;;;;;5057860;28;20020;-84
2022/10/15 05:11:24;;;;;;;9.35;4.80;;;15.20;99.90;;;;;;5071648;28;20027;-84
2022/10/15 05:13:51;;;;;;;9.88;5.03;;;15.30;99.90;;;;;;5057152;28;20450;-84
2022/10/15 05:16:19;;;;;;;8.82;4.60;;;15.30;99.90;;;;;;5059090;28;20301;-83
2022/10/15 05:18:46;;;;;;;9.40;4.67;;;15.40;99.90;;;;;;5080475;28;21100;-83
2022/10/15 05:21:13;;;;;;;8.57;4.43;;;15.40;99.90;;;;;;5055789;28;20063;-84
2022/10/15 05:23:39;;;;;;;8.77;4.38;;;15.40;99.90;;;;;;5039934;28;20115;-84
2022/10/15 05:26:08;;;;;;;9.75;5.03;;;15.40;99.90;;;;;;5068609;28;20008;-84
2022/10/15 05:28:34;;;;;;;9.05;5.13;;;15.40;99.90;;;;;;5049734;28;20020;-84
2022/10/15 05:31:08;;;;;;;7.57;4.13;;;15.40;99.90;;;;;;5048478;28;20507;-84
2022/10/15 05:33:34;;;;;;;9.23;4.63;;;15.40;99.90;;;;;;5054747;28;20035;-84
2022/10/15 05:36:24;;;;;;;8.50;4.18;;;15.40;99.90;;;;;;5042515;28;20024;-84
2022/10/15 05:38:52;;;;;;;7.90;4.27;;;15.50;99.90;;;;;;5078230;28;20020;-84
2022/10/15 05:41:19;;;;;;;8.43;4.68;;;15.40;99.90;;;;;;5078175;28;20653;-83
2022/10/15 05:43:53;;;;;;;7.78;4.13;;;15.50;99.90;;;;;;5073846;28;20115;-84
2022/10/15 05:46:19;;;;;;;7.78;4.32;;;15.40;99.90;;;;;;5046435;28;20684;-84
2022/10/15 05:48:49;;;;;;;7.97;4.32;;;15.50;99.90;;;;;;5072837;28;20040;-84
2022/10/15 05:51:15;;;;;;;7.90;4.27;;;15.40;99.90;;;;;;5041367;28;20188;-84
2022/10/15 05:53:42;;;;;;;8.65;4.63;;;15.50;99.90;;;;;;5057108;28;20013;-84
2022/10/15 05:56:08;;;;;;;8.07;4.38;;;15.50;99.90;;;;;;5036064;28;20463;-83
2022/10/15 05:58:35;;;;;;;7.75;3.83;;;15.50;99.90;;;;;;5057944;28;20487;-83
2022/10/15 06:01:03;;;;;;;7.65;4.47;;;15.50;99.90;;;;;;5066383;28;20012;-83
2022/10/15 06:03:29;;;;;;;7.73;4.00;;;15.50;99.90;;;;;;5047497;28;20051;-83
2022/10/15 06:05:55;;;;;;;7.45;3.90;;;15.50;99.90;;;;;;5049173;28;20383;-83
2022/10/15 06:08:21;;;;;;;7.10;3.63;;;15.50;99.90;;;;;;5072490;28;20016;-83
2022/10/15 06:10:47;;;;;;;8.03;3.90;;;15.40;99.90;;;;;;5034068;28;20034;-83
2022/10/15 06:13:13;;;;;;;7.50;3.83;;;15.40;99.90;;;;;;5046516;28;20255;-83
2022/10/15 06:15:44;;;;;;;6.68;3.67;;;15.40;99.90;;;;;;5070296;28;20036;-83
2022/10/15 06:18:11;;;;;;;5.78;3.20;;;15.40;99.90;;;;;;5034500;28;20229;-83
2022/10/15 06:20:37;;;;;;;6.43;3.40;;;15.40;99.90;;;;;;5071419;28;20016;-83
2022/10/15 06:23:04;;;;;;;5.90;3.13;;;15.40;99.90;;;;;;5042221;28;20047;-83
2022/10/15 06:25:30;;;;;;;7.53;3.65;;;15.40;99.90;;;;;;5048674;28;20158;-83
2022/10/15 06:27:59;;;;;;;6.88;3.45;;;15.40;99.90;;;;;;5048554;28;20193;-83
2022/10/15 06:30:25;;;;;;;5.85;3.10;;;15.40;99.90;;;;;;5060082;28;20375;-83
2022/10/15 06:32:52;;;;;;;6.30;2.87;;;15.40;99.90;;;;;;5049114;28;20128;-83
2022/10/15 06:35:19;;;;;;;5.35;2.65;;;15.40;99.90;;;;;;5081786;28;20043;-83
2022/10/15 06:37:45;;;;;;;6.05;2.90;;;15.40;99.90;;;;;;5041846;28;20043;-83
2022/10/15 06:40:11;;;;;;;6.57;2.77;;;15.40;99.90;;;;;;5071962;28;20058;-83
2022/10/15 06:42:37;;;;;;;7.38;3.00;;;15.50;99.90;;;;;;5035595;28;20074;-83
2022/10/15 06:45:04;;;;;;;6.47;2.73;;;15.50;99.90;;;;;;5045698;28;21532;-83
2022/10/15 06:47:30;;;;;;;5.72;3.00;;;15.60;99.90;;;;;;5043808;28;20024;-83
2022/10/15 06:49:55;;;;;;;6.35;2.70;;;15.60;99.90;;;;;;5033378;28;20071;-83
2022/10/15 06:52:22;;;;;;;4.87;2.57;;;15.60;99.90;;;;;;5057725;28;20507;-83
2022/10/15 06:54:48;;;;;;;4.60;2.63;;;15.70;99.90;;;;;;5053080;28;20220;-83
2022/10/15 06:57:13;;;;;;;6.10;2.70;;;15.70;99.90;;;;;;5035364;28;20024;-83
2022/10/15 06:59:39;;;;;;;6.20;2.40;;;15.70;99.90;;;;;;5056840;28;20028;-83
2022/10/15 07:02:05;;;;;;;5.60;2.70;;;15.70;99.90;;;;;;5044255;28;20597;-83
2022/10/15 07:04:31;;;;;;;5.55;2.63;;;15.80;99.90;;;;;;5051407;28;20066;-83
2022/10/15 07:06:56;;;;;;;4.97;2.67;;;15.80;99.90;;;;;;5053150;28;20679;-83
2022/10/15 07:09:22;;;;;;;5.50;3.00;;;15.80;99.90;;;;;;5035896;28;20454;-83
2022/10/15 07:11:48;;;;;;;5.37;2.57;;;15.90;99.90;;;;;;5060946;28;20040;-83
2022/10/15 07:14:13;;;;;;;6.97;3.13;;;15.90;99.90;;;;;;5049035;28;20048;-83
2022/10/15 07:16:39;;;;;;;5.90;2.70;;;15.90;99.90;;;;;;5035339;28;20102;-83
2022/10/15 07:19:05;;;;;;;5.25;2.70;;;15.90;99.90;;;;;;5046985;28;20046;-83
2022/10/15 07:21:31;;;;;;;6.47;2.70;;;16.00;99.90;;;;;;5054538;28;20376;-83
2022/10/15 07:23:58;;;;;;;5.35;2.50;;;16.00;99.90;;;;;;5038644;28;20020;-83
2022/10/15 07:26:23;;;;;;;10.25;2.60;;;16.10;99.90;;;;;;5037081;28;21339;-83
2022/10/15 07:28:49;;;;;;;5.53;2.67;;;16.20;99.90;;;;;;5048775;28;20483;-83
2022/10/15 07:31:15;;;;;;;6.35;2.53;;;16.20;99.90;;;;;;5046200;28;20039;-83
2022/10/15 07:33:42;;;;;;;5.90;2.50;;;16.30;99.90;;;;;;5061731;28;20016;-83
2022/10/15 07:36:11;;;;;;;4.80;2.38;;;16.30;99.90;;;;;;5051105;28;20028;-83
2022/10/15 07:38:39;;;;;;;4.15;2.28;;;16.40;99.90;;;;;;5038914;28;20495;-83
2022/10/15 07:41:06;;;;;;;4.78;2.28;;;16.50;99.90;;;;;;5063873;28;20020;-83
2022/10/15 07:43:33;;;;;;;4.15;2.28;;;16.50;99.90;;;;;;5042655;28;20692;-83
2022/10/15 07:45:58;;;;;;;4.37;2.20;;;16.50;99.90;;;;;;5046685;28;20480;-83
2022/10/15 07:48:24;;;;;;;4.18;2.20;;;16.50;99.90;;;;;;5041262;28;20047;-83
2022/10/15 07:51:00;;;;;;;4.00;2.07;;;16.60;99.90;;;;;;5045411;28;20032;-83
2022/10/15 07:53:27;;;;;;;3.33;1.92;;;16.60;99.90;;;;;;5045995;28;20059;-83
2022/10/15 07:55:52;;;;;;;4.07;1.90;;;16.70;99.90;;;;;;5045357;28;20051;-83
2022/10/15 07:58:18;;;;;;;4.20;2.00;;;16.70;99.90;;;;;;5051687;28;20029;-83
2022/10/15 08:00:44;;;;;;;3.60;1.83;;;16.70;99.90;;;;;;5041648;28;20619;-84
2022/10/15 08:03:10;;;;;;;3.50;1.85;;;16.80;99.90;;;;;;5043885;28;20271;-84
2022/10/15 08:05:35;;;;;;;4.10;1.73;;;16.90;99.90;;;;;;5047608;28;20217;-83
2022/10/15 08:08:02;;;;;;;2.58;1.65;;;17.00;99.90;;;;;;5030731;28;20142;-84
2022/10/15 08:10:28;;;;;;;3.38;1.60;;;17.00;99.90;;;;;;5052454;28;20052;-84
2022/10/15 08:12:53;;;;;;;3.17;1.87;;;17.10;99.90;;;;;;5052218;28;20108;-84
2022/10/15 08:15:19;;;;;;;3.75;1.70;;;17.10;99.90;;;;;;5028433;28;20021;-84
2022/10/15 08:17:45;;;;;;;2.67;1.40;;;17.20;99.90;;;;;;5053727;28;20120;-83
2022/10/15 08:20:11;;;;;;;2.53;1.48;;;17.20;99.90;;;;;;5061887;28;20023;-83
2022/10/15 08:22:36;;;;;;;2.33;1.57;;;17.30;99.90;;;;;;5042105;28;20226;-84
2022/10/15 08:25:03;;;;;;;2.30;1.40;;;17.30;99.90;;;;;;5044115;28;20021;-84
2022/10/15 08:27:29;;;;;;;2.53;1.35;;;17.30;99.90;;;;;;5030778;28;20047;-84
2022/10/15 08:29:54;;;;;;;2.60;1.20;;;17.30;99.90;;;;;;5031662;28;20484;-83
2022/10/15 08:32:20;;;;;;;2.72;1.17;;;17.30;99.90;;;;;;5058803;28;20033;-84
2022/10/15 08:34:46;;;;;;;1.60;1.10;;;17.30;99.90;;;;;;5057902;28;20393;-84
2022/10/15 08:37:11;;;;;;;1.88;1.05;;;17.30;99.90;;;;;;5035259;28;20648;-84
2022/10/15 08:39:37;;;;;;;1.57;1.10;;;17.30;99.90;;;;;;5046786;28;20016;-83
2022/10/15 08:42:18;;;;;;;1.40;1.00;;;17.30;99.90;;;;;;5046793;28;20101;-83
2022/10/15 08:44:57;;;;;;;1.90;1.00;;;17.30;99.90;;;;;;5054982;28;20081;-83
2022/10/15 08:48:02;;;;;;;1.90;0.90;;;17.40;99.90;;;;;;5066629;28;20013;-84
2022/10/15 08:50:42;;;;;;;1.40;0.80;;;17.40;99.90;;;;;;4988561;28;20057;-83
2022/10/15 08:53:13;;;;;;;1.00;0.80;;;17.40;99.90;;;;;;4998246;28;20036;-83
2022/10/15 08:55:42;;;;;;;2.00;0.82;;;17.50;99.90;;;;;;5053038;28;20407;-84
2022/10/15 08:58:19;;;;;;;0.68;0.65;;;17.50;99.90;;;;;;5050228;28;20324;-83
2022/10/15 09:01:12;;;;;;;1.67;0.80;;;17.60;99.90;;;;;;5054036;28;20024;-83
2022/10/15 09:03:57;;;;;;;0.85;0.70;;;17.70;99.90;;;;;;5065893;28;20107;-83
2022/10/15 09:06:26;;;;;;;0.60;0.60;;;17.70;99.90;;;;;;5059120;28;20025;-83
2022/10/15 09:09:05;;;;;;;0.73;0.70;;;17.70;99.90;;;;;;5054259;28;20508;-83
2022/10/15 09:11:55;;;;;;;0.70;0.70;;;17.70;99.90;;;;;;5064476;28;20461;-83
2022/10/15 09:14:29;;;;;;;1.20;0.80;;;17.80;99.90;;;;;;5045624;28;20130;-82
2022/10/15 09:16:56;;;;;;;0.60;0.60;;;17.80;99.90;;;;;;5051733;28;20043;-83
2022/10/15 09:19:24;;;;;;;1.15;0.60;;;17.90;99.90;;;;;;5059298;28;20496;-84
2022/10/15 09:21:51;;;;;;;1.25;0.70;;;17.90;99.90;;;;;;5067599;28;20043;-84
2022/10/15 09:24:23;;;;;;;0.70;0.70;;;17.90;99.90;;;;;;5054960;28;20492;-82
2022/10/15 09:27:14;;;;;;;0.93;0.70;;;17.90;99.90;;;;;;5050971;28;20419;-83
2022/10/15 09:29:52;;;;;;;0.80;0.70;;;18.00;99.90;;;;;;5052714;28;20039;-83
2022/10/15 09:32:34;;;;;;;1.08;0.60;;;18.00;99.90;;;;;;5056719;28;20310;-83
2022/10/15 09:35:15;;;;;;;1.60;0.60;;;18.00;99.90;;;;;;5049571;28;20388;-83
2022/10/15 09:38:00;;;;;;;1.13;0.60;;;18.10;99.90;;;;;;5046630;28;20598;-83
2022/10/15 09:40:44;;;;;;;0.87;0.60;;;18.10;99.90;;;;;;5051888;28;20437;-83
2022/10/15 09:43:12;;;;;;;0.90;0.60;;;18.10;99.90;;;;;;5057237;28;20328;-83
2022/10/15 09:45:38;;;;;;;1.05;0.63;;;18.20;99.90;;;;;;5053048;28;20028;-83
2022/10/15 09:48:15;;;;;;;1.37;0.70;;;18.20;99.90;;;;;;5028181;28;20163;-83
2022/10/15 09:50:53;;;;;;;0.70;0.60;;;18.20;99.90;;;;;;5071249;28;20724;-83
2022/10/15 09:53:34;;;;;;;1.20;0.65;;;18.30;99.90;;;;;;5048401;28;20032;-82
2022/10/15 09:56:11;;;;;;;0.50;0.50;;;18.40;99.90;;;;;;5042445;28;20025;-83
2022/10/15 09:58:54;;;;;;;1.23;0.60;;;18.40;99.90;;;;;;5063314;28;20056;-83
2022/10/15 10:01:24;;;;;;;0.70;0.60;;;18.40;99.90;;;;;;5060288;28;20044;-81
2022/10/15 10:03:52;;;;;;;0.70;0.70;;;18.50;99.90;;;;;;5052454;28;20043;-83
2022/10/15 10:06:19;;;;;;;0.70;0.60;;;18.60;99.90;;;;;;5044903;28;20127;-83
2022/10/15 10:08:56;;;;;;;0.60;0.60;;;18.60;99.90;;;;;;5047771;28;20036;-81
2022/10/15 10:11:23;;;;;;;0.80;0.70;;;18.70;99.90;;;;;;5045903;28;20594;-84
2022/10/15 10:13:53;;;;;;;1.13;0.70;;;18.80;99.90;;;;;;5038871;28;20030;-83
2022/10/15 10:16:20;;;;;;;0.80;0.80;;;18.80;99.90;;;;;;5033694;28;20038;-83
2022/10/15 10:19:13;;;;;;;0.80;0.80;;;18.90;99.90;;;;;;5047197;28;20081;-83
2022/10/15 10:21:41;;;;;;;0.70;0.60;;;19.00;99.90;;;;;;5069039;28;20256;-83
2022/10/15 10:24:36;;;;;;;0.82;0.70;;;19.10;99.90;;;;;;5041071;28;20028;-83
2022/10/15 10:27:02;;;;;;;0.70;0.70;;;19.10;99.90;;;;;;5034510;28;20043;-81
2022/10/15 10:29:31;;;;;;;1.25;0.70;;;19.20;99.90;;;;;;5040361;28;20111;-83
2022/10/15 10:31:57;;;;;;;1.00;0.70;;;19.20;99.90;;;;;;5053259;28;20488;-82
2022/10/15 10:34:30;;;;;;;1.00;0.80;;;19.20;99.90;;;;;;5047599;28;20117;-83
2022/10/15 10:36:56;;;;;;;0.80;0.80;;;19.10;99.90;;;;;;5038940;28;20081;-83
2022/10/15 10:39:35;;;;;;;0.82;0.80;;;19.20;99.90;;;;;;5048822;28;20192;-84
2022/10/15 10:42:06;;;;;;;0.70;0.70;;;19.20;99.90;;;;;;5051158;28;20027;-83
2022/10/15 10:44:40;;;;;;;1.27;0.90;;;19.20;99.90;;;;;;5050066;28;20016;-83
2022/10/15 10:47:15;;;;;;;1.23;0.90;;;19.30;99.90;;;;;;5032892;28;20101;-83
2022/10/15 10:49:44;;;;;;;1.20;1.10;;;19.40;99.90;;;;;;5058172;28;20137;-83
2022/10/15 10:52:19;;;;;;;1.10;0.90;;;19.40;99.90;;;;;;5053047;28;20437;-83
2022/10/15 10:54:47;;;;;;;1.17;1.08;;;19.50;99.90;;;;;;5050395;28;20117;-83
2022/10/15 10:57:19;;;;;;;0.80;0.80;;;19.50;99.90;;;;;;5034338;28;20044;-83
2022/10/15 10:59:52;;;;;;;0.98;0.80;;;19.60;99.90;;;;;;5049638;28;20253;-83
2022/10/15 11:02:18;;;;;;;1.02;0.80;;;19.60;99.90;;;;;;5052241;28;20082;-82
2022/10/15 11:04:45;;;;;;;1.50;0.90;;;19.60;99.90;;;;;;5056747;28;20229;-83
2022/10/15 11:07:25;;;;;;;0.90;0.80;;;19.70;99.90;;;;;;5060652;28;20027;-83
2022/10/15 11:10:02;;;;;;;0.80;0.80;;;19.70;99.90;;;;;;5038047;28;20341;-83
2022/10/15 11:12:45;;;;;;;1.00;0.90;;;19.70;99.90;;;;;;5059557;28;20031;-82
2022/10/15 11:15:48;;;;;;;1.17;0.98;;;19.70;99.90;;;;;;5045306;28;20039;-82
2022/10/15 11:18:41;;;;;;;0.80;0.80;;;19.80;99.90;;;;;;5064482;28;20488;-82
2022/10/15 11:21:26;;;;;;;1.10;1.00;;;19.90;99.90;;;;;;5067062;28;20427;-83
2022/10/15 11:24:16;;;;;;;1.00;0.90;;;19.90;99.90;;;;;;5044460;28;20657;-83
2022/10/15 11:27:13;;;;;;;0.95;0.80;;;20.00;99.90;;;;;;5054991;28;20028;-83
2022/10/15 11:30:08;;;;;;;1.95;0.90;;;20.00;99.90;;;;;;5050886;28;20032;-83
2022/10/15 11:32:40;;;;;;;1.13;1.00;;;20.20;99.90;;;;;;5038963;28;20040;-83
2022/10/15 11:35:27;;;;;;;1.00;0.93;;;20.50;99.90;;;;;;5033415;28;20032;-83
2022/10/15 11:37:58;;;;;;;1.10;0.90;;;20.90;99.90;;;;;;5065470;28;20028;-83
2022/10/15 11:40:31;;;;;;;1.23;0.90;;;21.20;99.90;;;;;;5073879;28;20582;-82
2022/10/15 11:43:06;;;;;;;1.23;0.90;;;21.60;99.90;;;;;;5053313;28;20040;-82
2022/10/15 11:46:14;;;;;;;0.88;0.80;;;21.90;99.90;;;;;;5046891;28;20558;-83
2022/10/15 11:49:12;;;;;;;0.75;0.75;;;22.10;99.90;;;;;;5025945;28;20467;-82
2022/10/15 11:52:12;;;;;;;1.10;0.97;;;22.10;99.90;;;;;;5065107;28;20115;-81
2022/10/15 11:54:55;;;;;;;1.38;0.90;;;22.20;99.90;;;;;;5047893;28;20024;-82
2022/10/15 11:57:22;;;;;;;1.40;0.82;;;22.10;99.90;;;;;;5062395;28;20033;-81
2022/10/15 12:00:04;;;;;;;0.85;0.80;;;22.10;99.90;;;;;;5055453;28;20093;-82
2022/10/15 12:02:34;;;;;;;0.88;0.88;;;22.10;99.90;;;;;;5053509;28;20020;-81
2022/10/15 12:05:06;;;;;;;0.70;0.70;;;22.10;99.90;;;;;;5058642;28;20035;-83
2022/10/15 12:07:31;;;;;;;0.70;0.70;;;22.20;99.90;;;;;;5045328;28;20129;-83
2022/10/15 12:10:24;;;;;;;0.70;0.70;;;22.20;99.90;;;;;;5042769;28;20041;-82
2022/10/15 12:12:56;;;;;;;1.27;0.67;;;22.20;99.90;;;;;;5025368;28;20148;-81
2022/10/15 12:15:39;;;;;;;0.82;0.82;;;22.20;99.90;;;;;;5035563;28;20237;-82
2022/10/15 12:18:25;;;;;;;0.60;0.60;;;22.20;99.90;;;;;;5048037;28;20029;-82
2022/10/15 12:20:54;;;;;;;0.70;0.70;;;22.20;99.90;;;;;;5041428;28;20024;-81
2022/10/15 12:23:40;;;;;;;0.80;0.80;;;22.10;99.90;;;;;;5043104;28;20097;-83
2022/10/15 12:26:31;;;;;;;0.80;0.80;;;22.10;99.90;;;;;;5064835;28;20035;-82
2022/10/15 12:28:58;;;;;;;0.93;0.80;;;22.00;99.90;;;;;;5069938;28;20028;-80
2022/10/15 12:31:24;;;;;;;1.00;0.80;;;22.00;99.90;;;;;;5049435;28;20162;-82
2022/10/15 12:33:52;;;;;;;0.93;0.88;;;21.90;99.90;;;;;;5071703;28;20084;-81
2022/10/15 12:36:18;;;;;;;0.70;0.70;;;21.80;99.90;;;;;;5026920;28;20128;-83
2022/10/15 12:39:00;;;;;;;0.80;0.80;;;21.70;99.90;;;;;;5045310;28;20024;-82
2022/10/15 12:41:41;;;;;;;1.33;0.90;;;21.70;99.90;;;;;;5065973;28;20126;-82
2022/10/15 12:44:19;;;;;;;0.73;0.70;;;21.60;99.90;;;;;;5056341;28;20376;-82
2022/10/15 12:46:45;;;;;;;0.60;0.50;;;21.60;99.90;;;;;;5034399;28;20092;-81
2022/10/15 12:49:26;;;;;;;0.73;0.50;;;21.50;99.90;;;;;;5055630;28;20541;-81
2022/10/15 12:51:56;;;;;;;1.67;0.60;;;21.50;99.90;;;;;;5056407;28;20047;-81
2022/10/15 12:54:43;;;;;;;0.50;0.50;;;21.60;99.90;;;;;;5053542;28;20766;-81
2022/10/15 12:57:33;;;;;;;0.77;0.40;;;21.60;99.90;;;;;;5068369;28;20321;-81
2022/10/15 13:00:00;;;;;;;0.40;0.40;;;21.70;99.90;;;;;;5039688;28;20021;-81
2022/10/15 13:02:35;;;;;;;0.70;0.50;;;21.80;99.90;;;;;;5051811;28;20331;-81
2022/10/15 13:05:02;;;;;;;0.88;0.43;;;21.90;99.90;;;;;;5063677;28;20029;-81
2022/10/15 13:07:28;;;;;;;0.70;0.43;;;22.00;99.90;;;;;;5047519;28;21645;-82